Time;durP1;ratioP1;P1;durP2;ratioP2;P2;SDS_P1;SDS_P2;PMS_P1;PMS_P2;Temp;Humidity;BMP_temperature;BMP_pressure;BME280_temperature;BME280_humidity;BME280_pressure;Samples;Min_cycle;Max_cycle;Signal;HPM_P1;HPM_P2
2022/04/10 00:01:36;;;;;;;13.18;9.68;;;;;;;17.87;55.06;99563.08;1740683;82;20998;-54
2022/04/10 00:04:04;;;;;;;12.95;8.70;;;;;;;17.93;56.13;99564.73;1745196;80;20903;-54
2022/04/10 00:06:31;;;;;;;12.90;8.28;;;;;;;18.08;55.54;99564.09;1722774;80;20959;-56
2022/04/10 00:09:00;;;;;;;12.93;9.25;;;;;;;17.83;56.22;99571.21;1750717;80;21583;-54
2022/04/10 00:11:29;;;;;;;17.37;9.13;;;;;;;17.64;57.40;99572.02;1748877;80;21594;-54
2022/04/10 00:13:56;;;;;;;17.07;9.53;;;;;;;17.53;58.86;99562.41;1746658;80;20970;-55
2022/04/10 00:16:23;;;;;;;21.07;9.83;;;;;;;17.66;58.37;99555.45;1719998;82;21039;-63
2022/04/10 00:18:51;;;;;;;14.50;8.90;;;;;;;17.62;59.65;99558.31;1727717;82;21115;-54
2022/04/10 00:21:18;;;;;;;14.20;8.78;;;;;;;17.72;58.80;99560.25;1728703;82;20928;-54
2022/04/10 00:23:45;;;;;;;14.83;8.85;;;;;;;17.50;59.40;99563.71;1728198;82;21905;-54
2022/04/10 00:26:13;;;;;;;15.60;9.65;;;;;;;17.38;60.72;99562.22;1728685;82;20951;-58
2022/04/10 00:28:42;;;;;;;16.37;8.35;;;;;;;17.41;60.67;99557.78;1730423;82;20949;-53
2022/04/10 00:31:09;;;;;;;16.07;8.75;;;;;;;17.49;61.00;99562.09;1730025;82;21066;-54
2022/04/10 00:33:36;;;;;;;13.05;8.80;;;;;;;17.57;60.69;99549.01;1730641;82;21109;-54
2022/04/10 00:36:05;;;;;;;14.07;9.35;;;;;;;17.46;60.96;99552.56;1729940;82;22246;-54
2022/04/10 00:38:32;;;;;;;16.85;9.60;;;;;;;17.48;60.83;99550.50;1728951;81;20876;-62
2022/04/10 00:40:59;;;;;;;14.20;9.70;;;;;;;17.58;60.97;99549.31;1719608;82;21564;-55
2022/04/10 00:43:30;;;;;;;15.05;8.55;;;;;;;17.59;61.88;99556.16;1730092;82;21032;-54
2022/04/10 00:45:56;;;;;;;12.33;7.90;;;;;;;17.49;62.68;99547.60;1750320;80;21129;-55
2022/04/10 00:48:24;;;;;;;16.87;10.55;;;;;;;17.45;63.29;99541.23;1750392;80;21164;-56
2022/04/10 00:53:38;;;;;;;17.00;9.48;;;;;;;17.36;64.89;99536.66;1751694;80;20967;-56
2022/04/10 00:56:05;;;;;;;13.55;8.98;;;;;;;17.44;64.56;99536.22;1750834;80;20956;-57
2022/04/10 00:58:32;;;;;;;17.45;9.15;;;;;;;17.41;64.21;99541.97;1751098;80;20915;-57
2022/04/10 01:01:00;;;;;;;15.25;10.50;;;;;;;17.36;66.73;99541.40;1750360;80;20950;-55
2022/04/10 01:03:27;;;;;;;17.85;10.88;;;;;;;17.37;67.67;99534.28;1751450;80;20951;-58
2022/04/10 01:05:54;;;;;;;13.28;9.55;;;;;;;17.33;69.01;99540.56;1751163;80;21061;-57
2022/04/10 01:08:23;;;;;;;12.10;8.55;;;;;;;17.35;69.07;99542.94;1750133;80;21121;-63
2022/04/10 01:10:50;;;;;;;15.00;10.18;;;;;;;17.20;71.58;99537.78;1751413;80;20984;-58
2022/04/10 01:13:17;;;;;;;15.32;10.13;;;;;;;17.18;72.17;99538.53;1750469;80;21145;-59
2022/04/10 01:15:44;;;;;;;16.90;11.25;;;;;;;17.33;71.99;99541.88;1751637;80;21048;-57
2022/04/10 01:18:12;;;;;;;16.67;9.25;;;;;;;17.34;71.13;99542.67;1750364;80;21103;-56
2022/04/10 01:20:40;;;;;;;16.37;9.30;;;;;;;17.32;70.66;99544.77;1751055;80;20951;-57
2022/04/10 01:23:09;;;;;;;18.05;10.40;;;;;;;17.29;72.93;99541.30;1750293;80;21469;-55
2022/04/10 01:25:38;;;;;;;16.23;10.38;;;;;;;17.46;71.20;99543.34;1751702;80;20971;-56
2022/04/10 01:28:12;;;;;;;16.30;10.55;;;;;;;17.58;70.94;99546.67;1750236;80;21018;-55
2022/04/10 01:30:40;;;;;;;18.77;10.30;;;;;;;17.68;70.87;99538.86;1748224;80;21018;-54
2022/04/10 01:33:06;;;;;;;16.65;11.53;;;;;;;17.73;70.50;99540.78;1750384;80;21046;-54
2022/04/10 01:35:33;;;;;;;17.10;12.07;;;;;;;17.72;70.71;99539.95;1749212;80;21485;-55
2022/04/10 01:38:01;;;;;;;17.70;11.50;;;;;;;17.51;72.25;99545.53;1750263;80;21155;-62
2022/04/10 01:40:29;;;;;;;13.85;9.03;;;;;;;17.66;72.07;99552.82;1750168;80;20959;-55
2022/04/10 01:42:56;;;;;;;16.67;10.70;;;;;;;17.50;73.88;99546.58;1739825;80;21034;-55
2022/04/10 01:45:23;;;;;;;19.77;11.15;;;;;;;17.57;73.33;99552.17;1750397;80;22432;-55
2022/04/10 01:47:52;;;;;;;17.60;11.80;;;;;;;17.60;72.77;99541.14;1748975;80;20912;-56
2022/04/10 01:50:20;;;;;;;19.87;10.98;;;;;;;17.57;74.43;99542.42;1749945;80;21387;-56
2022/04/10 01:52:47;;;;;;;11.73;9.38;;;;;;;17.59;73.37;99540.34;1751613;80;21316;-57
2022/04/10 01:55:14;;;;;;;16.95;10.55;;;;;;;17.64;73.47;99537.77;1750429;80;21058;-56
2022/04/10 01:57:43;;;;;;;15.98;10.30;;;;;;;17.58;74.65;99540.58;1751638;80;21556;-55
2022/04/10 02:00:13;;;;;;;15.93;10.05;;;;;;;17.66;73.08;99540.17;1749377;80;21055;-55
2022/04/10 02:02:40;;;;;;;15.70;9.38;;;;;;;17.58;74.82;99538.77;1751642;80;21135;-55
2022/04/10 02:05:08;;;;;;;13.68;9.50;;;;;;;17.65;74.55;99532.78;1717396;81;21109;-56
2022/04/10 02:07:35;;;;;;;17.30;10.43;;;;;;;17.80;72.14;99530.84;1764538;80;21049;-55
2022/04/10 02:10:04;;;;;;;13.88;9.68;;;;;;;17.97;70.60;99532.08;1762884;80;20935;-57
2022/04/10 02:12:33;;;;;;;17.23;10.03;;;;;;;18.03;70.39;99533.70;1761876;80;21068;-56
2022/04/10 02:15:03;;;;;;;12.98;8.33;;;;;;;18.21;68.97;99529.39;1764306;80;20939;-55
2022/04/10 02:17:30;;;;;;;16.87;9.05;;;;;;;17.87;71.61;99526.17;1763015;78;20938;-56
2022/04/10 02:19:58;;;;;;;14.05;9.15;;;;;;;17.84;73.29;99533.78;1751543;80;21017;-56
2022/04/10 02:22:24;;;;;;;17.37;10.70;;;;;;;17.86;72.34;99527.22;1762795;80;20903;-56
2022/04/10 02:24:54;;;;;;;17.65;10.03;;;;;;;17.83;72.98;99530.88;1750454;81;20928;-56
2022/04/10 02:27:21;;;;;;;15.40;9.60;;;;;;;17.65;73.58;99532.78;1761744;81;21133;-56
2022/04/10 02:29:49;;;;;;;13.65;9.70;;;;;;;17.58;75.11;99520.31;1762906;80;20983;-58
2022/04/10 02:32:16;;;;;;;17.15;10.68;;;;;;;17.22;79.79;99514.61;1762167;80;20993;-55
2022/04/10 02:34:43;;;;;;;16.50;10.50;;;;;;;17.48;79.15;99518.35;1761894;80;20994;-55
2022/04/10 02:37:10;;;;;;;13.32;10.05;;;;;;;17.66;75.91;99513.28;1761639;81;21033;-55
2022/04/10 02:39:38;;;;;;;15.93;9.90;;;;;;;17.62;74.23;99514.03;1763328;80;21551;-55
2022/04/10 02:42:07;;;;;;;14.28;10.15;;;;;;;17.77;72.77;99510.27;1762385;80;20970;-62
2022/04/10 02:44:34;;;;;;;17.23;11.00;;;;;;;17.60;74.71;99506.36;1761978;81;21021;-55
2022/04/10 02:47:01;;;;;;;15.00;10.38;;;;;;;17.41;76.03;99509.05;1761543;81;21034;-55
2022/04/10 02:49:27;;;;;;;17.85;10.50;;;;;;;17.65;74.27;99509.06;1763222;80;21117;-56
2022/04/10 02:51:54;;;;;;;19.92;10.25;;;;;;;17.60;74.78;99506.88;1758877;79;21146;-56
2022/04/10 02:54:21;;;;;;;16.65;10.25;;;;;;;17.63;74.53;99507.71;1760862;80;21536;-57
2022/04/10 02:56:49;;;;;;;17.37;11.55;;;;;;;17.41;75.37;99508.52;1761982;80;21082;-57
2022/04/10 02:59:17;;;;;;;17.92;11.88;;;;;;;17.43;76.75;99499.86;1761793;81;20947;-56
2022/04/10 03:01:44;;;;;;;16.95;10.70;;;;;;;17.22;79.70;99503.28;1750293;78;21551;-56
2022/04/10 03:04:11;;;;;;;16.40;9.63;;;;;;;17.38;78.44;99510.84;1739357;82;22231;-55
2022/04/10 03:06:38;;;;;;;19.37;11.53;;;;;;;16.55;85.31;99506.80;1718885;82;21014;-57
2022/04/10 03:09:06;;;;;;;17.35;10.78;;;;;;;16.38;86.54;99509.98;1739447;82;20974;-57
2022/04/10 03:11:35;;;;;;;15.43;10.75;;;;;;;17.39;77.80;99507.19;1739096;81;21430;-55
2022/04/10 03:14:03;;;;;;;16.45;10.80;;;;;;;17.59;75.71;99506.09;1720870;82;20948;-57
2022/04/10 03:16:32;;;;;;;15.50;11.15;;;;;;;17.63;76.42;99512.98;1739036;82;21010;-57
2022/04/10 03:18:59;;;;;;;16.67;11.93;;;;;;;17.84;74.89;99508.73;1739302;82;22406;-55
2022/04/10 03:21:26;;;;;;;18.82;13.08;;;;;;;17.99;73.34;99512.33;1719556;82;20995;-56
2022/04/10 03:23:53;;;;;;;17.65;12.33;;;;;;;18.04;74.23;99512.90;1739230;82;21090;-56
2022/04/10 03:26:20;;;;;;;16.50;11.00;;;;;;;18.24;73.69;99509.11;1739382;81;21002;-61
2022/04/10 03:28:47;;;;;;;19.92;10.72;;;;;;;18.32;72.44;99507.84;1717829;83;22181;-55
2022/04/10 03:31:14;;;;;;;16.48;12.28;;;;;;;18.41;70.57;99498.94;1739306;82;21033;-56
2022/04/10 03:33:41;;;;;;;15.60;10.98;;;;;;;18.47;70.78;99503.21;1739309;82;20935;-56
2022/04/10 03:36:08;;;;;;;16.73;12.33;;;;;;;18.82;68.32;99503.20;1718099;83;21070;-58
2022/04/10 03:38:36;;;;;;;17.67;12.75;;;;;;;18.90;67.62;99501.39;1739373;82;21117;-60
2022/04/10 03:41:02;;;;;;;17.83;12.27;;;;;;;19.03;66.54;99497.52;1739428;82;21552;-56
2022/04/10 03:43:31;;;;;;;16.13;12.03;;;;;;;18.96;66.15;99491.13;1719060;82;22355;-56
2022/04/10 03:45:58;;;;;;;19.70;13.43;;;;;;;19.32;63.79;99501.84;1702935;82;21119;-55
2022/04/10 03:48:26;;;;;;;15.00;12.13;;;;;;;19.19;63.98;99504.45;1713542;81;21281;-55
2022/04/10 03:50:53;;;;;;;19.90;12.90;;;;;;;19.25;64.52;99502.63;1712295;82;21820;-57
2022/04/10 03:53:21;;;;;;;17.57;11.70;;;;;;;19.38;63.09;99499.50;1741357;81;21291;-57
2022/04/10 03:55:48;;;;;;;19.70;13.00;;;;;;;19.45;62.20;99501.38;1718041;83;21240;-56
2022/04/10 03:58:15;;;;;;;18.03;13.57;;;;;;;19.77;60.86;99499.09;1739698;82;21291;-55
2022/04/10 04:00:42;;;;;;;20.23;13.47;;;;;;;19.83;60.16;99497.53;1739276;82;21098;-57
2022/04/10 04:03:10;;;;;;;17.03;12.60;;;;;;;20.17;58.68;99509.73;1720201;82;21176;-54
2022/04/10 04:05:38;;;;;;;16.67;12.20;;;;;;;20.19;57.82;99509.45;1748092;82;21310;-55
2022/04/10 04:08:07;;;;;;;17.10;12.73;;;;;;;19.99;57.26;99499.66;1701417;81;21040;-55
2022/04/10 04:10:35;;;;;;;17.93;12.90;;;;;;;20.44;57.42;99493.31;1720106;82;21351;-58
2022/04/10 04:13:02;;;;;;;17.83;13.17;;;;;;;20.44;56.94;99496.75;1753957;81;21218;-56
2022/04/10 04:15:30;;;;;;;20.13;15.13;;;;;;;20.66;56.28;99492.52;1719130;82;21383;-55
2022/04/10 04:18:00;;;;;;;19.83;12.70;;;;;;;20.75;54.33;99499.38;1743712;81;21227;-56
2022/04/10 04:20:28;;;;;;;17.73;12.93;;;;;;;21.17;52.03;99494.21;1719023;82;21451;-57
2022/04/10 04:22:55;;;;;;;19.73;13.27;;;;;;;21.06;52.12;99496.92;1716787;83;21157;-58
2022/04/10 04:25:22;;;;;;;21.70;13.27;;;;;;;20.91;51.97;99506.24;1748116;82;21690;-56
2022/04/10 04:27:51;;;;;;;18.07;14.17;;;;;;;20.22;54.12;99506.81;1753241;81;21478;-58
2022/04/10 04:30:18;;;;;;;18.13;13.17;;;;;;;20.14;54.25;99510.25;1718870;82;22799;-56
2022/04/10 04:32:47;;;;;;;18.47;12.63;;;;;;;20.27;54.46;99510.80;1753790;81;21455;-62
2022/04/10 04:35:15;;;;;;;17.40;13.17;;;;;;;20.17;54.83;99509.73;1718723;82;21779;-56
2022/04/10 04:37:44;;;;;;;20.20;12.43;;;;;;;20.24;54.64;99503.39;1754653;81;22435;-55
2022/04/10 04:40:13;;;;;;;19.83;13.70;;;;;;;20.24;54.64;99503.39;1748473;81;21635;-56
2022/04/10 04:42:41;;;;;;;17.20;12.40;;;;;;;20.47;54.01;99504.16;1754446;81;21657;-63
2022/04/10 04:45:09;;;;;;;16.30;13.33;;;;;;;20.53;53.68;99506.29;1719750;82;21655;-55
2022/04/10 04:47:37;;;;;;;18.17;12.87;;;;;;;21.34;51.68;99503.45;1748958;81;22607;-55
2022/04/10 04:50:07;;;;;;;16.23;12.23;;;;;;;21.34;51.68;99503.45;1717487;83;21806;-55
2022/04/10 04:52:36;;;;;;;18.27;12.85;;;;;;;21.81;48.47;99501.33;1754160;81;21752;-56
2022/04/10 04:55:06;;;;;;;20.40;14.13;;;;;;;20.92;49.66;99551.53;1719561;82;21144;-61
2022/04/10 04:57:32;;;;;;;17.23;13.53;;;;;;;20.63;51.15;99507.08;1754542;81;21966;-56
2022/04/10 04:59:59;;;;;;;16.77;13.00;;;;;;;20.59;50.81;99517.94;1718698;82;21703;-55
2022/04/10 05:02:26;;;;;;;19.37;13.00;;;;;;;20.51;51.05;99512.40;1752436;81;22160;-54
2022/04/10 05:04:54;;;;;;;20.00;13.00;;;;;;;20.60;50.51;99530.11;1749866;82;21426;-62
2022/04/10 05:07:23;;;;;;;19.03;12.93;;;;;;;20.60;50.51;99530.11;1734645;81;21546;-55
2022/04/10 05:09:51;;;;;;;18.90;12.93;;;;;;;20.51;50.23;99529.61;1749930;82;21626;-55
2022/04/10 05:12:18;;;;;;;18.00;12.60;;;;;;;20.36;50.72;99530.38;1734858;81;21754;-55
2022/04/10 05:14:48;;;;;;;21.93;13.60;;;;;;;20.33;51.17;99533.02;1749650;82;21590;-60
2022/04/10 05:17:15;;;;;;;18.73;11.90;;;;;;;20.36;51.09;99539.11;1734412;81;21604;-55
2022/04/10 05:19:45;;;;;;;16.20;11.80;;;;;;;20.46;50.72;99525.09;1749465;82;21701;-57
2022/04/10 05:22:13;;;;;;;16.77;12.57;;;;;;;20.46;50.72;99525.09;1734378;81;21461;-55
2022/04/10 05:24:42;;;;;;;16.90;12.50;;;;;;;20.59;50.15;99521.13;1749610;82;21655;-55
2022/04/10 05:27:11;;;;;;;18.20;12.47;;;;;;;20.76;49.99;99518.17;1734099;81;21812;-56
2022/04/10 05:29:38;;;;;;;16.53;11.00;;;;;;;20.80;49.05;99517.39;1750001;82;22132;-55
2022/04/10 05:32:07;;;;;;;14.87;10.43;;;;;;;20.93;48.45;99515.23;1733183;82;21756;-55
2022/04/10 05:34:33;;;;;;;16.93;11.47;;;;;;;20.92;49.00;99517.63;1747874;82;22158;-56
2022/04/10 05:37:00;;;;;;;16.27;11.00;;;;;;;21.29;47.82;99526.49;1733232;82;21777;-60
2022/04/10 05:39:29;;;;;;;14.67;9.83;;;;;;;21.76;46.63;99522.59;1749553;82;20888;-55
2022/04/10 05:41:55;;;;;;;15.40;9.53;;;;;;;21.82;46.67;99527.60;1734763;81;21121;-56
2022/04/10 05:44:23;;;;;;;13.40;8.90;;;;;;;21.99;46.04;99529.08;1749835;82;21105;-56
2022/04/10 05:46:50;;;;;;;14.47;8.40;;;;;;;22.53;43.66;99521.50;1750122;80;21564;-56
2022/04/10 05:49:19;;;;;;;15.50;9.50;;;;;;;22.46;42.71;99515.18;1733988;81;21595;-56
2022/04/10 05:51:45;;;;;;;12.87;8.67;;;;;;;22.20;43.10;99532.39;1749916;82;21281;-56
2022/04/10 05:54:13;;;;;;;16.20;9.73;;;;;;;21.92;44.03;99536.55;1750103;82;20982;-56
2022/04/10 05:56:42;;;;;;;11.33;7.47;;;;;;;22.26;43.37;99533.95;1736255;81;21142;-56
2022/04/10 05:59:09;;;;;;;12.67;8.57;;;;;;;22.43;42.71;99530.91;1749274;82;20970;-57
2022/04/10 06:01:36;;;;;;;15.70;8.33;;;;;;;22.52;42.37;99530.01;1749957;82;20967;-57
2022/04/10 06:04:04;;;;;;;10.97;6.97;;;;;;;22.66;41.67;99532.03;1741187;81;20975;-55
2022/04/10 06:06:31;;;;;;;11.47;6.90;;;;;;;22.50;41.39;99534.83;1718199;83;21034;-55
2022/04/10 06:08:59;;;;;;;14.03;7.50;;;;;;;22.60;41.22;99536.58;1729136;82;21160;-54
2022/04/10 06:11:28;;;;;;;11.83;7.03;;;;;;;23.49;39.50;99526.87;1738712;82;20923;-55
2022/04/10 06:13:56;;;;;;;11.37;6.27;;;;;;;23.82;38.67;99523.76;1728673;82;21225;-55
2022/04/10 06:16:26;;;;;;;10.17;5.87;;;;;;;24.15;38.26;99523.27;1719621;82;21026;-56
2022/04/10 06:18:55;;;;;;;9.90;6.27;;;;;;;24.37;37.74;99534.63;1739529;82;21046;-55
2022/04/10 06:21:24;;;;;;;10.70;6.13;;;;;;;24.50;37.29;99532.56;1738906;82;20932;-55
2022/04/10 06:23:51;;;;;;;8.90;5.87;;;;;;;24.84;36.45;99532.77;1739184;82;21445;-56
2022/04/10 06:26:20;;;;;;;10.37;6.07;;;;;;;24.92;36.03;99529.41;1718096;83;20959;-54
2022/04/10 06:28:48;;;;;;;9.17;5.30;;;;;;;24.98;35.45;99524.78;1739315;82;21050;-56
2022/04/10 06:31:17;;;;;;;9.70;6.13;;;;;;;24.68;35.68;99523.47;1737968;82;21701;-57
2022/04/10 06:33:43;;;;;;;7.63;5.27;;;;;;;24.84;35.53;99531.42;1739150;82;21005;-56
2022/04/10 06:36:10;;;;;;;8.47;5.60;;;;;;;24.59;35.27;99531.91;1739651;82;20916;-56
2022/04/10 06:38:38;;;;;;;9.97;5.37;;;;;;;24.85;35.04;99524.22;1742710;81;21060;-56
2022/04/10 06:41:08;;;;;;;10.47;4.97;;;;;;;24.93;34.75;99527.01;1720412;82;20981;-60
2022/04/10 06:43:35;;;;;;;11.03;5.90;;;;;;;24.95;34.35;99528.82;1739081;82;21003;-57
2022/04/10 06:46:05;;;;;;;10.97;5.40;;;;;;;24.88;34.39;99536.96;1739380;82;22149;-55
2022/04/10 06:48:38;;;;;;;8.67;5.30;;;;;;;24.65;34.68;99536.83;1717687;83;21000;-57
2022/04/10 06:51:05;;;;;;;10.25;5.15;;;;;;;24.81;34.63;99536.02;1739854;82;21050;-55
2022/04/10 06:53:32;;;;;;;8.80;4.90;;;;;;;25.10;34.03;99534.43;1739199;82;20942;-56
2022/04/10 06:55:59;;;;;;;8.30;4.87;;;;;;;25.18;34.06;99538.28;1741256;81;21189;-55
2022/04/10 06:58:26;;;;;;;9.40;4.90;;;;;;;24.61;34.57;99544.37;1717952;83;21074;-55
2022/04/10 07:00:54;;;;;;;8.83;4.27;;;;;;;24.85;34.78;99544.21;1739194;82;21595;-57
2022/04/10 07:03:21;;;;;;;11.03;4.90;;;;;;;24.91;34.49;99543.05;1744341;81;20931;-62
2022/04/10 07:05:50;;;;;;;10.73;4.20;;;;;;;25.04;34.06;99542.79;1747569;82;21212;-55
2022/04/10 07:08:20;;;;;;;7.13;4.40;;;;;;;25.18;33.93;99540.95;1754161;81;20916;-54
2022/04/10 07:10:46;;;;;;;10.13;4.80;;;;;;;25.16;33.64;99538.59;1748604;82;21125;-56
2022/04/10 07:13:17;;;;;;;8.67;4.20;;;;;;;25.17;33.51;99538.05;1749947;81;21073;-59
2022/04/10 07:15:47;;;;;;;10.10;4.67;;;;;;;25.29;33.57;99540.98;1746282;82;21053;-56
2022/04/10 07:18:16;;;;;;;7.93;3.90;;;;;;;25.43;33.42;99537.77;1754956;81;21047;-56
2022/04/10 07:20:43;;;;;;;10.03;4.30;;;;;;;25.71;33.03;99545.70;1748596;82;21515;-55
2022/04/10 07:25:57;;;;;;;8.07;3.70;;;;;;;25.75;32.56;99537.89;1748781;82;21038;-55
2022/04/10 07:28:26;;;;;;;7.97;4.00;;;;;;;25.77;32.79;99527.16;1752582;81;20958;-56
2022/04/10 07:30:54;;;;;;;8.63;3.77;;;;;;;26.13;32.28;99541.05;1748856;82;21509;-56
2022/04/10 07:33:22;;;;;;;6.97;2.83;;;;;;;26.10;32.41;99533.63;1747138;82;21036;-56
2022/04/10 07:35:52;;;;;;;8.50;3.50;;;;;;;26.25;32.35;99533.27;1747392;82;21368;-55
2022/04/10 07:38:23;;;;;;;7.97;3.65;;;;;;;26.58;31.85;99533.80;1748096;81;20983;-55
2022/04/10 07:40:51;;;;;;;7.73;3.30;;;;;;;26.99;31.15;99531.94;1747259;82;21031;-56
2022/04/10 07:43:21;;;;;;;6.97;3.07;;;;;;;27.16;31.12;99523.97;1747182;81;21006;-56
2022/04/10 07:48:35;;;;;;;7.27;2.80;;;;;;;28.03;29.82;99521.39;1748210;81;21382;-55
2022/04/10 07:51:02;;;;;;;10.63;3.40;;;;;;;28.05;28.92;99522.66;1748028;82;20950;-56
2022/04/10 07:53:30;;;;;;;6.33;3.23;;;;;;;28.43;28.17;99515.84;1753591;81;21425;-55
2022/04/10 07:55:58;;;;;;;6.97;3.43;;;;;;;28.50;28.24;99518.81;1724687;82;20912;-55
2022/04/10 07:58:26;;;;;;;7.47;3.10;;;;;;;28.78;27.72;99516.48;1712821;83;21052;-58
2022/04/10 08:00:55;;;;;;;5.33;3.20;;;;;;;29.07;26.86;99517.09;1748468;82;21310;-55
2022/04/10 08:03:24;;;;;;;5.50;2.77;;;;;;;29.18;26.91;99521.54;1748175;81;21033;-56
2022/04/10 08:05:51;;;;;;;7.70;3.03;;;;;;;29.51;26.14;99517.05;1748870;82;21021;-55
2022/04/10 08:08:24;;;;;;;7.87;2.50;;;;;;;29.81;25.71;99518.33;1746774;82;21021;-54
2022/04/10 08:10:51;;;;;;;11.97;3.27;;;;;;;29.98;25.37;99514.72;1723398;83;21034;-54
2022/04/10 08:13:17;;;;;;;5.43;2.40;;;;;;;30.17;24.89;99519.63;1749483;82;22061;-55
2022/04/10 08:15:46;;;;;;;9.23;2.73;;;;;;;30.10;24.46;99509.38;1749880;82;21354;-54
2022/04/10 08:18:15;;;;;;;8.73;2.43;;;;;;;30.04;23.85;99506.66;1750149;82;20958;-54
2022/04/10 08:20:41;;;;;;;7.63;3.13;;;;;;;30.08;23.67;99516.19;1723904;83;21026;-54
2022/04/10 08:23:09;;;;;;;7.10;2.67;;;;;;;29.72;23.82;99509.56;1749534;82;21033;-54
2022/04/10 08:25:36;;;;;;;5.53;2.20;;;;;;;29.44;24.02;99518.13;1748922;82;22121;-54
2022/04/10 08:28:06;;;;;;;4.73;2.30;;;;;;;29.18;24.43;99511.59;1749600;82;20973;-55
2022/04/10 08:30:33;;;;;;;5.23;2.33;;;;;;;29.13;24.76;99517.69;1723991;83;21537;-54
2022/04/10 08:33:00;;;;;;;6.60;2.60;;;;;;;29.28;24.59;99515.77;1749559;82;21090;-55
2022/04/10 08:35:27;;;;;;;10.73;2.23;;;;;;;29.69;24.69;99503.50;1749355;82;20923;-54
2022/04/10 08:37:53;;;;;;;4.73;2.40;;;;;;;30.45;24.33;99498.27;1749903;82;21718;-54
2022/04/10 08:40:21;;;;;;;15.37;3.23;;;;;;;31.18;23.64;99496.95;1750026;82;20983;-55
2022/04/10 08:42:48;;;;;;;4.83;2.03;;;;;;;31.39;22.57;99494.12;1723976;83;20994;-54
2022/04/10 08:45:14;;;;;;;4.57;2.10;;;;;;;31.78;22.17;99497.13;1750072;82;20964;-54
2022/04/10 08:47:42;;;;;;;4.00;1.97;;;;;;;31.97;21.63;99501.36;1749456;82;21013;-56
2022/04/10 08:50:11;;;;;;;6.73;2.60;;;;;;;32.06;21.34;99491.76;1749947;81;21417;-55
2022/04/10 08:52:40;;;;;;;7.53;2.40;;;;;;;31.91;21.27;99493.30;1724096;82;20990;-55
2022/04/10 08:55:10;;;;;;;6.70;2.80;;;;;;;31.88;21.33;99486.45;1749806;82;24623;-54
2022/04/10 08:57:37;;;;;;;5.47;2.80;;;;;;;32.20;21.35;99483.23;1749593;82;20971;-56
2022/04/10 09:00:08;;;;;;;4.47;2.50;;;;;;;32.54;20.68;99481.79;1724198;83;21020;-54
2022/04/10 09:02:48;;;;;;;5.72;2.47;;;;;;;32.51;20.69;99473.07;1750109;82;21230;-58
2022/04/10 09:05:19;;;;;;;7.83;2.93;;;;;;;32.26;20.97;99477.81;1723775;83;21182;-60
2022/04/10 09:08:16;;;;;;;4.08;2.02;;;;;;;32.46;20.38;99481.41;1749935;82;21243;-54
2022/04/10 09:11:04;;;;;;;5.57;2.57;;;;;;;32.71;19.50;99479.31;1723873;83;20999;-56
2022/04/10 09:13:35;;;;;;;4.77;2.37;;;;;;;32.69;19.64;99467.53;1749553;82;21460;-55
2022/04/10 09:16:15;;;;;;;6.77;3.10;;;;;;;32.65;19.71;99468.55;1749647;82;21157;-55
2022/04/10 09:18:51;;;;;;;7.00;2.60;;;;;;;32.76;19.23;99474.20;1724102;83;21501;-54
2022/04/10 09:21:24;;;;;;;6.23;3.33;;;;;;;32.32;19.39;99471.61;1749983;82;20970;-56
2022/04/10 09:23:57;;;;;;;7.65;2.45;;;;;;;32.76;19.07;99474.98;1748990;82;21033;-54
2022/04/10 09:26:25;;;;;;;11.77;2.87;;;;;;;32.79;18.65;99467.54;1748911;82;21555;-56
2022/04/10 09:28:56;;;;;;;6.77;2.40;;;;;;;32.47;18.84;99468.16;1748982;82;21013;-55
2022/04/10 09:31:31;;;;;;;5.17;2.20;;;;;;;32.22;18.96;99473.67;1749584;82;21497;-55
2022/04/10 09:34:07;;;;;;;6.77;2.70;;;;;;;32.09;18.86;99467.37;1739467;82;21093;-55
2022/04/10 09:36:45;;;;;;;10.33;2.77;;;;;;;32.05;19.04;99455.69;1723381;83;21018;-56
2022/04/10 09:39:32;;;;;;;6.67;2.87;;;;;;;31.59;19.32;99470.04;1749999;82;21024;-54
2022/04/10 09:42:09;;;;;;;6.03;2.03;;;;;;;31.84;19.26;99462.64;1722661;83;21242;-56
2022/04/10 09:44:38;;;;;;;6.33;2.40;;;;;;;31.60;19.50;99456.24;1749757;82;21567;-55
2022/04/10 09:47:10;;;;;;;6.10;2.77;;;;;;;31.91;19.47;99457.47;1749756;82;21043;-55
2022/04/10 09:49:43;;;;;;;5.67;1.90;;;;;;;31.91;19.09;99466.91;1723855;83;20956;-61
2022/04/10 09:52:15;;;;;;;11.07;2.80;;;;;;;32.10;18.73;99458.93;1724127;83;21360;-55
2022/04/10 09:54:46;;;;;;;7.03;2.80;;;;;;;32.06;18.69;99463.45;1749866;82;21248;-56
2022/04/10 09:57:17;;;;;;;5.10;2.30;;;;;;;31.77;19.14;99453.02;1723509;83;21105;-54
2022/04/10 09:59:51;;;;;;;8.40;3.10;;;;;;;31.34;19.81;99462.63;1718528;83;21018;-56
2022/04/10 10:02:21;;;;;;;6.20;3.20;;;;;;;31.67;19.79;99457.78;1749705;82;21327;-55
2022/04/10 10:04:54;;;;;;;6.62;3.10;;;;;;;31.45;19.78;99469.88;1743594;81;21039;-54
2022/04/10 10:07:21;;;;;;;7.03;3.20;;;;;;;31.53;19.83;99456.05;1748210;82;21244;-59
2022/04/10 10:09:51;;;;;;;6.12;2.90;;;;;;;31.29;20.07;99474.93;1752796;81;20915;-55
2022/04/10 10:12:19;;;;;;;8.57;3.20;;;;;;;31.18;20.39;99473.30;1748961;82;20891;-54
2022/04/10 10:14:50;;;;;;;4.50;2.83;;;;;;;31.00;20.51;99473.53;1748875;82;22305;-55
2022/04/10 10:17:18;;;;;;;6.17;2.80;;;;;;;31.18;20.34;99463.88;1754189;81;21080;-54
2022/04/10 10:19:47;;;;;;;4.80;2.80;;;;;;;31.27;20.40;99459.13;1717064;83;21050;-55
2022/04/10 10:22:17;;;;;;;8.53;3.53;;;;;;;31.47;20.39;99455.48;1754043;81;21021;-55
2022/04/10 10:25:09;;;;;;;6.30;2.80;;;;;;;31.29;20.39;99454.16;1749035;81;20966;-55
2022/04/10 10:28:09;;;;;;;10.10;3.00;;;;;;;32.06;19.83;99454.02;1754087;81;20982;-55
2022/04/10 10:31:11;;;;;;;5.93;2.90;;;;;;;32.16;19.69;99444.07;1748890;82;20954;-60
2022/04/10 10:33:47;;;;;;;6.87;3.63;;;;;;;32.61;19.28;99438.02;1750317;81;20898;-54
2022/04/10 10:36:15;;;;;;;4.90;2.80;;;;;;;32.72;18.92;99439.61;1729597;81;21027;-56
2022/04/10 10:38:50;;;;;;;9.60;3.20;;;;;;;31.89;19.40;99444.33;1726399;82;21865;-54
2022/04/10 10:41:22;;;;;;;6.57;2.60;;;;;;;32.65;18.91;99436.17;1749758;81;20930;-55
2022/04/10 10:43:50;;;;;;;7.20;2.73;;;;;;;32.41;19.09;99431.77;1754427;81;21430;-54
2022/04/10 10:46:28;;;;;;;6.47;3.10;;;;;;;32.54;18.88;99433.23;1749008;81;21156;-57
2022/04/10 10:49:21;;;;;;;8.63;2.50;;;;;;;32.75;18.92;99427.55;1749221;81;21514;-54
2022/04/10 10:51:50;;;;;;;6.60;3.43;;;;;;;32.87;18.75;99429.34;1754074;81;20999;-62
2022/04/10 10:54:35;;;;;;;6.90;3.00;;;;;;;32.90;18.72;99416.50;1748909;82;21934;-55
2022/04/10 10:57:39;;;;;;;5.63;2.70;;;;;;;32.96;18.65;99425.92;1747711;81;21065;-54
2022/04/10 11:00:16;;;;;;;4.20;2.57;;;;;;;33.15;18.39;99424.59;1725529;82;21245;-54
2022/04/10 11:02:52;;;;;;;7.23;2.93;;;;;;;33.16;18.30;99415.34;1746152;81;20972;-54
2022/04/10 11:05:32;;;;;;;5.13;2.90;;;;;;;33.01;18.42;99414.05;1713054;82;21064;-55
2022/04/10 11:08:03;;;;;;;7.67;2.93;;;;;;;32.82;18.62;99414.78;1742811;81;21105;-55
2022/04/10 11:10:34;;;;;;;5.60;2.27;;;;;;;32.72;18.51;99411.27;1718022;83;21015;-57
2022/04/10 11:13:08;;;;;;;4.10;2.43;;;;;;;32.74;18.44;99414.41;1739461;82;21010;-55
2022/04/10 11:15:47;;;;;;;5.53;2.77;;;;;;;32.65;18.50;99415.37;1742595;81;21023;-56
2022/04/10 11:18:31;;;;;;;7.05;2.62;;;;;;;32.58;18.36;99417.93;1742575;81;20958;-55
2022/04/10 11:21:11;;;;;;;7.70;2.97;;;;;;;32.31;18.58;99409.34;1709359;82;21287;-55
2022/04/10 11:23:47;;;;;;;5.80;2.30;;;;;;;32.11;18.80;99406.56;1739842;82;21045;-55
2022/04/10 11:26:19;;;;;;;4.60;2.27;;;;;;;32.14;18.52;99408.57;1742736;81;21630;-54
2022/04/10 11:29:04;;;;;;;6.53;2.70;;;;;;;32.26;18.29;99402.30;1718166;83;21051;-54
2022/04/10 11:31:36;;;;;;;8.57;3.03;;;;;;;32.05;18.57;99401.23;1739467;82;21038;-60
2022/04/10 11:34:22;;;;;;;8.30;2.93;;;;;;;32.07;18.40;99394.91;1730687;81;21459;-54
2022/04/10 11:36:53;;;;;;;8.53;3.20;;;;;;;31.88;18.62;99399.64;1738508;82;20935;-56
2022/04/10 11:39:29;;;;;;;7.50;3.30;;;;;;;31.87;18.80;99394.04;1719166;82;21023;-60
2022/04/10 11:42:04;;;;;;;5.83;2.70;;;;;;;31.95;18.78;99397.13;1736627;82;21850;-57
2022/04/10 11:44:31;;;;;;;10.93;3.10;;;;;;;32.08;18.77;99394.34;1739463;82;21693;-57
2022/04/10 11:47:02;;;;;;;6.73;3.07;;;;;;;31.92;18.92;99397.04;1708246;84;21441;-56